SWR18A LSZH-EGLL
Flight info
| Callsign | SWR18A |
|---|---|
| Flight time | 1h 16m |
| Altitude | 32000 |
| Route | LSZH VEBI1T VEBIT T10 TORPA DCT REKLA DCT RLP DCT ROTSI DCT KOTUN DCT NINAL DCT ABNUR DCT DIMAL DCT ALESO ALES1H EGLL |
| Aircraft | A339/H-L/MCDU |
Departure
| Time | 2026-05-05 11:07 |
|---|---|
| Airport | Zürich Airport (LSZH) |
Arrival
| Time | 2026-05-05 12:23 |
|---|---|
| Airport | London Heathrow Airport (EGLL) |
| Time | Latitude | Longitude | Altitude | Speed | Heading |
|---|---|---|---|---|---|
| 2026-05-05 10:47 | 47.45425 | 8.55803 | 1403 ft | 0 kts | 186° |
| 2026-05-05 10:52 | 47.45432 | 8.55804 | 1411 ft | 3 kts | 186° |
| 2026-05-05 10:52 | 47.45448 | 8.55806 | 1406 ft | 1 kts | 186° |
| 2026-05-05 10:53 | 47.45469 | 8.55809 | 1408 ft | 3 kts | 189° |
| 2026-05-05 10:53 | 47.45491 | 8.55816 | 1410 ft | 3 kts | 221° |
| 2026-05-05 10:53 | 47.45505 | 8.55834 | 1411 ft | 2 kts | 270° |
| 2026-05-05 10:53 | 47.45500 | 8.55873 | 1408 ft | 2 kts | 277° |
| 2026-05-05 10:54 | 47.45500 | 8.55876 | 1407 ft | 0 kts | 276° |
| 2026-05-05 10:55 | 47.45504 | 8.55864 | 1411 ft | 5 kts | 290° |
| 2026-05-05 10:55 | 47.45529 | 8.55841 | 1410 ft | 4 kts | 340° |
| 2026-05-05 10:56 | 47.45598 | 8.55849 | 1403 ft | 12 kts | 5° |
| 2026-05-05 10:56 | 47.45642 | 8.55791 | 1410 ft | 8 kts | 286° |
| 2026-05-05 10:56 | 47.45652 | 8.55673 | 1406 ft | 16 kts | 276° |
| 2026-05-05 10:56 | 47.45664 | 8.55512 | 1406 ft | 15 kts | 276° |
| 2026-05-05 10:57 | 47.45673 | 8.55377 | 1405 ft | 12 kts | 276° |
| 2026-05-05 10:57 | 47.45681 | 8.55267 | 1408 ft | 10 kts | 276° |
| 2026-05-05 10:57 | 47.45695 | 8.55183 | 1407 ft | 7 kts | 296° |
| 2026-05-05 10:57 | 47.45731 | 8.55141 | 1407 ft | 8 kts | 332° |
| 2026-05-05 10:58 | 47.45803 | 8.55091 | 1408 ft | 16 kts | 335° |
| 2026-05-05 10:58 | 47.45924 | 8.55009 | 1406 ft | 20 kts | 335° |
| 2026-05-05 10:58 | 47.46034 | 8.54929 | 1409 ft | 15 kts | 334° |
| 2026-05-05 10:58 | 47.46122 | 8.54867 | 1408 ft | 13 kts | 334° |
| 2026-05-05 10:59 | 47.46195 | 8.54817 | 1410 ft | 10 kts | 336° |
| 2026-05-05 10:59 | 47.46255 | 8.54779 | 1409 ft | 10 kts | 336° |
| 2026-05-05 10:59 | 47.46334 | 8.54726 | 1409 ft | 20 kts | 335° |
| 2026-05-05 10:59 | 47.46481 | 8.54623 | 1409 ft | 23 kts | 335° |
| 2026-05-05 11:00 | 47.46614 | 8.54533 | 1405 ft | 20 kts | 336° |
| 2026-05-05 11:00 | 47.46723 | 8.54457 | 1406 ft | 15 kts | 336° |
| 2026-05-05 11:00 | 47.46814 | 8.54408 | 1404 ft | 12 kts | 339° |
| 2026-05-05 11:00 | 47.46879 | 8.54363 | 1407 ft | 8 kts | 334° |
| 2026-05-05 11:01 | 47.46930 | 8.54327 | 1409 ft | 17 kts | 335° |
| 2026-05-05 11:01 | 47.47080 | 8.54224 | 1414 ft | 23 kts | 334° |
| 2026-05-05 11:01 | 47.47206 | 8.54137 | 1412 ft | 18 kts | 334° |
| 2026-05-05 11:01 | 47.47313 | 8.54064 | 1406 ft | 16 kts | 335° |
| 2026-05-05 11:02 | 47.47413 | 8.53995 | 1408 ft | 16 kts | 334° |
| 2026-05-05 11:02 | 47.47518 | 8.53922 | 1409 ft | 17 kts | 335° |
| 2026-05-05 11:02 | 47.47602 | 8.53826 | 1413 ft | 13 kts | 298° |
| 2026-05-05 11:02 | 47.47607 | 8.53746 | 1405 ft | 5 kts | 257° |
| 2026-05-05 11:03 | 47.47593 | 8.53699 | 1412 ft | 5 kts | 246° |
| 2026-05-05 11:03 | 47.47584 | 8.53669 | 1411 ft | 1 kts | 245° |
| 2026-05-05 11:03 | 47.47570 | 8.53626 | 1411 ft | 9 kts | 244° |
| 2026-05-05 11:03 | 47.47537 | 8.53605 | 1409 ft | 5 kts | 175° |
| 2026-05-05 11:04 | 47.47519 | 8.53623 | 1407 ft | 0 kts | 150° |
| 2026-05-05 11:06 | 47.47342 | 8.53748 | 1406 ft | 69 kts | 155° |
| 2026-05-05 11:06 | 47.46671 | 8.54213 | 1405 ft | 142 kts | 155° |
| 2026-05-05 11:06 | 47.45999 | 8.54679 | 1416 ft | 179 kts | 155° |
| 2026-05-05 11:07 | 47.44839 | 8.55460 | 2082 ft | 182 kts | 157° |
| 2026-05-05 11:07 | 47.43670 | 8.56242 | 2945 ft | 188 kts | 157° |
| 2026-05-05 11:07 | 47.42455 | 8.57061 | 3655 ft | 197 kts | 156° |
| 2026-05-05 11:07 | 47.41168 | 8.57937 | 4212 ft | 212 kts | 156° |
| 2026-05-05 11:08 | 47.39790 | 8.58875 | 4566 ft | 218 kts | 156° |
| 2026-05-05 11:08 | 47.38527 | 8.60056 | 4784 ft | 215 kts | 134° |
| 2026-05-05 11:08 | 47.37818 | 8.61985 | 5043 ft | 218 kts | 103° |
| 2026-05-05 11:08 | 47.37892 | 8.64200 | 5306 ft | 221 kts | 72° |
| 2026-05-05 11:09 | 47.38751 | 8.66068 | 5559 ft | 225 kts | 40° |
| 2026-05-05 11:09 | 47.40163 | 8.67026 | 5815 ft | 229 kts | 7° |
| 2026-05-05 11:09 | 47.41798 | 8.66751 | 6106 ft | 249 kts | 337° |
| 2026-05-05 11:09 | 47.43309 | 8.65355 | 6374 ft | 260 kts | 318° |
| 2026-05-05 11:10 | 47.44659 | 8.63578 | 6610 ft | 261 kts | 315° |
| 2026-05-05 11:10 | 47.45991 | 8.61735 | 6839 ft | 262 kts | 308° |
| 2026-05-05 11:10 | 47.46811 | 8.59347 | 7120 ft | 267 kts | 279° |
| 2026-05-05 11:10 | 47.46815 | 8.56601 | 7614 ft | 271 kts | 259° |
| 2026-05-05 11:11 | 47.46318 | 8.53887 | 8121 ft | 276 kts | 245° |
| 2026-05-05 11:11 | 47.45412 | 8.51393 | 8614 ft | 276 kts | 235° |
| 2026-05-05 11:11 | 47.44408 | 8.48969 | 9153 ft | 278 kts | 236° |
| 2026-05-05 11:11 | 47.43431 | 8.46502 | 9676 ft | 278 kts | 237° |
| 2026-05-05 11:12 | 47.42470 | 8.44002 | 10179 ft | 280 kts | 238° |
| 2026-05-05 11:12 | 47.41501 | 8.41460 | 10628 ft | 290 kts | 238° |
| 2026-05-05 11:12 | 47.40503 | 8.38846 | 10990 ft | 301 kts | 238° |
| 2026-05-05 11:12 | 47.39453 | 8.36099 | 11381 ft | 312 kts | 238° |
| 2026-05-05 11:13 | 47.38370 | 8.33261 | 11756 ft | 323 kts | 239° |
| 2026-05-05 11:13 | 47.37300 | 8.30291 | 12155 ft | 333 kts | 241° |
| 2026-05-05 11:13 | 47.36229 | 8.27219 | 12549 ft | 341 kts | 242° |
| 2026-05-05 11:13 | 47.35131 | 8.24069 | 12945 ft | 350 kts | 242° |
| 2026-05-05 11:14 | 47.34004 | 8.20852 | 13363 ft | 356 kts | 242° |
| 2026-05-05 11:14 | 47.32852 | 8.17577 | 13745 ft | 363 kts | 242° |
| 2026-05-05 11:14 | 47.31672 | 8.14249 | 14101 ft | 369 kts | 242° |
| 2026-05-05 11:14 | 47.30469 | 8.10863 | 14455 ft | 375 kts | 242° |
| 2026-05-05 11:15 | 47.29247 | 8.07425 | 14828 ft | 381 kts | 241° |
| 2026-05-05 11:15 | 47.28068 | 8.03896 | 15184 ft | 387 kts | 248° |
| 2026-05-05 11:15 | 47.27441 | 8.00032 | 15632 ft | 392 kts | 262° |
| 2026-05-05 11:15 | 47.27532 | 7.96013 | 16139 ft | 396 kts | 277° |
| 2026-05-05 11:16 | 47.28175 | 7.92045 | 16661 ft | 399 kts | 282° |
| 2026-05-05 11:16 | 47.28848 | 7.88102 | 17176 ft | 401 kts | 282° |
| 2026-05-05 11:16 | 47.29446 | 7.84521 | 17648 ft | 403 kts | 282° |
| 2026-05-05 11:16 | 47.30103 | 7.80501 | 18177 ft | 405 kts | 282° |
| 2026-05-05 11:17 | 47.30694 | 7.76844 | 18621 ft | 406 kts | 281° |
| 2026-05-05 11:17 | 47.31348 | 7.72776 | 19087 ft | 408 kts | 281° |
| 2026-05-05 11:17 | 47.32000 | 7.68697 | 19566 ft | 410 kts | 281° |
| 2026-05-05 11:17 | 47.32656 | 7.64588 | 20064 ft | 412 kts | 281° |
| 2026-05-05 11:18 | 47.33314 | 7.60462 | 20560 ft | 414 kts | 281° |
| 2026-05-05 11:18 | 47.33976 | 7.56305 | 21074 ft | 416 kts | 281° |
| 2026-05-05 11:18 | 47.34628 | 7.52204 | 21582 ft | 418 kts | 280° |
| 2026-05-05 11:18 | 47.35291 | 7.48022 | 22106 ft | 419 kts | 280° |
| 2026-05-05 11:19 | 47.35952 | 7.43832 | 22642 ft | 420 kts | 280° |
| 2026-05-05 11:19 | 47.36614 | 7.39624 | 23188 ft | 421 kts | 280° |
| 2026-05-05 11:19 | 47.37274 | 7.35403 | 23700 ft | 423 kts | 279° |
| 2026-05-05 11:19 | 47.37911 | 7.31323 | 24122 ft | 424 kts | 280° |
| 2026-05-05 11:20 | 47.38573 | 7.27103 | 24568 ft | 426 kts | 279° |
| 2026-05-05 11:20 | 47.39246 | 7.22802 | 25013 ft | 427 kts | 279° |
| 2026-05-05 11:20 | 47.39884 | 7.18708 | 25368 ft | 430 kts | 279° |
| 2026-05-05 11:20 | 47.40560 | 7.14335 | 25624 ft | 436 kts | 279° |
| 2026-05-05 11:21 | 47.41233 | 7.09965 | 25875 ft | 443 kts | 279° |
| 2026-05-05 11:21 | 47.41923 | 7.05482 | 26133 ft | 449 kts | 279° |
| 2026-05-05 11:21 | 47.42621 | 7.00938 | 26387 ft | 454 kts | 279° |
| 2026-05-05 11:21 | 47.43319 | 6.96386 | 26645 ft | 460 kts | 279° |
| 2026-05-05 11:22 | 47.44028 | 6.91749 | 26903 ft | 465 kts | 279° |
| 2026-05-05 11:22 | 47.44746 | 6.87030 | 27174 ft | 469 kts | 279° |
| 2026-05-05 11:22 | 47.45459 | 6.82336 | 27446 ft | 473 kts | 279° |
| 2026-05-05 11:22 | 47.46178 | 6.77595 | 27706 ft | 477 kts | 279° |
| 2026-05-05 11:23 | 47.46908 | 6.72759 | 27979 ft | 481 kts | 279° |
| 2026-05-05 11:23 | 47.47638 | 6.67901 | 28251 ft | 484 kts | 278° |
| 2026-05-05 11:23 | 47.48173 | 6.62997 | 28527 ft | 483 kts | 272° |
| 2026-05-05 11:23 | 47.48507 | 6.58067 | 28805 ft | 484 kts | 272° |
| 2026-05-05 11:24 | 47.48861 | 6.53083 | 29091 ft | 484 kts | 272° |
| 2026-05-05 11:24 | 47.49215 | 6.48194 | 29368 ft | 485 kts | 272° |
| 2026-05-05 11:24 | 47.49573 | 6.43238 | 29657 ft | 485 kts | 272° |
| 2026-05-05 11:24 | 47.49753 | 6.40718 | 29800 ft | 485 kts | 272° |
| 2026-05-05 11:25 | 47.50109 | 6.35711 | 30060 ft | 484 kts | 272° |
| 2026-05-05 11:25 | 47.50452 | 6.30830 | 30303 ft | 484 kts | 272° |
| 2026-05-05 11:25 | 47.50800 | 6.25854 | 30548 ft | 484 kts | 272° |
| 2026-05-05 11:25 | 47.51144 | 6.20886 | 30805 ft | 484 kts | 272° |
| 2026-05-05 11:26 | 47.51485 | 6.15931 | 31053 ft | 483 kts | 272° |
| 2026-05-05 11:26 | 47.51824 | 6.10963 | 31310 ft | 482 kts | 272° |
| 2026-05-05 11:26 | 47.52159 | 6.06028 | 31573 ft | 482 kts | 272° |
| 2026-05-05 11:26 | 47.52488 | 6.01160 | 31819 ft | 481 kts | 272° |
| 2026-05-05 11:27 | 47.52822 | 5.96178 | 31873 ft | 481 kts | 272° |
| 2026-05-05 11:27 | 47.54025 | 5.86533 | 31870 ft | 488 kts | 287° |
| 2026-05-05 11:27 | 47.55519 | 5.81924 | 31871 ft | 493 kts | 298° |
| 2026-05-05 11:28 | 47.57581 | 5.77812 | 31874 ft | 497 kts | 309° |
| 2026-05-05 11:28 | 47.62405 | 5.70459 | 31865 ft | 499 kts | 313° |
| 2026-05-05 11:29 | 47.67221 | 5.63046 | 31867 ft | 498 kts | 311° |
| 2026-05-05 11:29 | 47.71922 | 5.55495 | 31866 ft | 498 kts | 310° |
| 2026-05-05 11:30 | 47.76582 | 5.47917 | 31865 ft | 498 kts | 310° |
| 2026-05-05 11:30 | 47.81308 | 5.40210 | 31862 ft | 506 kts | 310° |
| 2026-05-05 11:31 | 47.86049 | 5.32464 | 31857 ft | 510 kts | 310° |
| 2026-05-05 11:31 | 47.90835 | 5.24619 | 31855 ft | 512 kts | 310° |
| 2026-05-05 11:32 | 47.95641 | 5.16719 | 31853 ft | 513 kts | 310° |
| 2026-05-05 11:32 | 48.00417 | 5.08845 | 31847 ft | 513 kts | 310° |
| 2026-05-05 11:33 | 48.05209 | 5.00918 | 31846 ft | 513 kts | 310° |
| 2026-05-05 11:33 | 48.09988 | 4.92989 | 31845 ft | 513 kts | 310° |
| 2026-05-05 11:34 | 48.14739 | 4.85085 | 31840 ft | 513 kts | 310° |
| 2026-05-05 11:34 | 48.19532 | 4.77087 | 31840 ft | 513 kts | 310° |
| 2026-05-05 11:35 | 48.24279 | 4.69137 | 31838 ft | 513 kts | 310° |
| 2026-05-05 11:35 | 48.29041 | 4.61143 | 31837 ft | 513 kts | 310° |
| 2026-05-05 11:36 | 48.33789 | 4.53149 | 31835 ft | 513 kts | 310° |
| 2026-05-05 11:36 | 48.38519 | 4.45159 | 31833 ft | 512 kts | 309° |
| 2026-05-05 11:37 | 48.43283 | 4.37087 | 31832 ft | 512 kts | 309° |
| 2026-05-05 11:37 | 48.47972 | 4.29119 | 31832 ft | 511 kts | 309° |
| 2026-05-05 11:38 | 48.52674 | 4.21104 | 31832 ft | 509 kts | 309° |
| 2026-05-05 11:38 | 48.57370 | 4.13075 | 31847 ft | 509 kts | 309° |
| 2026-05-05 11:39 | 48.62048 | 4.05054 | 31834 ft | 508 kts | 309° |
| 2026-05-05 11:39 | 48.66712 | 3.97031 | 31859 ft | 507 kts | 309° |
| 2026-05-05 11:40 | 48.71378 | 3.88979 | 31855 ft | 507 kts | 309° |
| 2026-05-05 11:40 | 48.76313 | 3.81361 | 31850 ft | 508 kts | 314° |
| 2026-05-05 11:41 | 48.81374 | 3.73857 | 31833 ft | 508 kts | 314° |
| 2026-05-05 11:41 | 48.86411 | 3.66344 | 31848 ft | 508 kts | 314° |
| 2026-05-05 11:42 | 48.91433 | 3.58826 | 31823 ft | 507 kts | 314° |
| 2026-05-05 11:42 | 48.96472 | 3.51261 | 31834 ft | 507 kts | 314° |
| 2026-05-05 11:43 | 49.01466 | 3.43740 | 31838 ft | 506 kts | 314° |
| 2026-05-05 11:43 | 49.06478 | 3.36171 | 31846 ft | 506 kts | 313° |
| 2026-05-05 11:44 | 49.10636 | 3.29874 | 31843 ft | 506 kts | 313° |
| 2026-05-05 11:44 | 49.15655 | 3.22252 | 31843 ft | 506 kts | 313° |
| 2026-05-05 11:45 | 49.20628 | 3.14677 | 31855 ft | 506 kts | 313° |
| 2026-05-05 11:45 | 49.25615 | 3.07058 | 31849 ft | 506 kts | 313° |
| 2026-05-05 11:46 | 49.30599 | 2.99418 | 31851 ft | 507 kts | 313° |
| 2026-05-05 11:46 | 49.35574 | 2.91773 | 31855 ft | 507 kts | 313° |
| 2026-05-05 11:47 | 49.40532 | 2.84127 | 31859 ft | 506 kts | 313° |
| 2026-05-05 11:47 | 49.45509 | 2.76430 | 31864 ft | 506 kts | 313° |
| 2026-05-05 11:48 | 49.52933 | 2.64904 | 31870 ft | 506 kts | 313° |
| 2026-05-05 11:48 | 49.57878 | 2.57199 | 31873 ft | 505 kts | 313° |
| 2026-05-05 11:49 | 49.63092 | 2.50014 | 31880 ft | 507 kts | 321° |
| 2026-05-05 11:49 | 49.68732 | 2.43452 | 31877 ft | 507 kts | 321° |
| 2026-05-05 11:50 | 49.74349 | 2.36848 | 31882 ft | 507 kts | 321° |
| 2026-05-05 11:50 | 49.79951 | 2.30240 | 31880 ft | 506 kts | 321° |
| 2026-05-05 11:51 | 49.85544 | 2.23623 | 31882 ft | 506 kts | 321° |
| 2026-05-05 11:51 | 49.91112 | 2.17016 | 31885 ft | 505 kts | 321° |
| 2026-05-05 11:52 | 49.94863 | 2.12556 | 31885 ft | 505 kts | 321° |
| 2026-05-05 11:52 | 49.99303 | 2.07263 | 31889 ft | 504 kts | 321° |
| 2026-05-05 11:53 | 50.04868 | 2.00612 | 31888 ft | 504 kts | 321° |
| 2026-05-05 11:53 | 50.10416 | 1.93964 | 31888 ft | 503 kts | 321° |
| 2026-05-05 11:54 | 50.15956 | 1.87302 | 31894 ft | 502 kts | 321° |
| 2026-05-05 11:54 | 50.21013 | 1.79951 | 31897 ft | 500 kts | 314° |
| 2026-05-05 11:55 | 50.26002 | 1.72349 | 31902 ft | 500 kts | 314° |
| 2026-05-05 11:55 | 50.30975 | 1.64756 | 31905 ft | 499 kts | 313° |
| 2026-05-05 11:56 | 50.33436 | 1.60924 | 31711 ft | 498 kts | 313° |
| 2026-05-05 11:56 | 50.35829 | 1.57174 | 31250 ft | 494 kts | 313° |
| 2026-05-05 11:56 | 50.38304 | 1.53291 | 30543 ft | 491 kts | 313° |
| 2026-05-05 11:56 | 50.40703 | 1.49524 | 29768 ft | 486 kts | 313° |
| 2026-05-05 11:57 | 50.43078 | 1.45796 | 28932 ft | 481 kts | 313° |
| 2026-05-05 11:57 | 50.45430 | 1.42099 | 28103 ft | 478 kts | 313° |
| 2026-05-05 11:57 | 50.47776 | 1.38408 | 27341 ft | 475 kts | 314° |
| 2026-05-05 11:57 | 50.50094 | 1.34756 | 26689 ft | 469 kts | 314° |
| 2026-05-05 11:58 | 50.52382 | 1.31147 | 26053 ft | 464 kts | 314° |
| 2026-05-05 11:58 | 50.54644 | 1.27572 | 25427 ft | 459 kts | 314° |
| 2026-05-05 11:58 | 50.56887 | 1.24021 | 24822 ft | 455 kts | 314° |
| 2026-05-05 11:58 | 50.59079 | 1.20548 | 24307 ft | 448 kts | 314° |
| 2026-05-05 11:59 | 50.61260 | 1.17087 | 23854 ft | 441 kts | 314° |
| 2026-05-05 11:59 | 50.63400 | 1.13688 | 23363 ft | 435 kts | 314° |
| 2026-05-05 11:59 | 50.65515 | 1.10322 | 22817 ft | 428 kts | 314° |
| 2026-05-05 11:59 | 50.67589 | 1.07016 | 22313 ft | 421 kts | 314° |
| 2026-05-05 12:00 | 50.69623 | 1.03769 | 21911 ft | 411 kts | 314° |
| 2026-05-05 12:00 | 50.71616 | 1.00585 | 21522 ft | 402 kts | 314° |
| 2026-05-05 12:00 | 50.73557 | 0.97480 | 21135 ft | 393 kts | 314° |
| 2026-05-05 12:00 | 50.75452 | 0.94444 | 20751 ft | 384 kts | 314° |
| 2026-05-05 12:01 | 50.77185 | 0.91665 | 20392 ft | 380 kts | 314° |
| 2026-05-05 12:01 | 50.79047 | 0.88675 | 20019 ft | 382 kts | 314° |
| 2026-05-05 12:01 | 50.80922 | 0.85661 | 19650 ft | 382 kts | 315° |
| 2026-05-05 12:01 | 50.82784 | 0.82665 | 19167 ft | 382 kts | 315° |
| 2026-05-05 12:02 | 50.84634 | 0.79685 | 18687 ft | 376 kts | 315° |
| 2026-05-05 12:02 | 50.86453 | 0.76749 | 18209 ft | 370 kts | 315° |
| 2026-05-05 12:02 | 50.88240 | 0.73862 | 17668 ft | 365 kts | 315° |
| 2026-05-05 12:02 | 50.90008 | 0.71003 | 17138 ft | 362 kts | 315° |
| 2026-05-05 12:03 | 50.91772 | 0.68147 | 16630 ft | 361 kts | 315° |
| 2026-05-05 12:03 | 50.93521 | 0.65314 | 16040 ft | 358 kts | 315° |
| 2026-05-05 12:03 | 50.95242 | 0.62477 | 15409 ft | 356 kts | 313° |
| 2026-05-05 12:03 | 50.96788 | 0.59402 | 14791 ft | 355 kts | 306° |
| 2026-05-05 12:04 | 50.98213 | 0.56221 | 14280 ft | 353 kts | 306° |
| 2026-05-05 12:04 | 50.99621 | 0.53061 | 13669 ft | 351 kts | 306° |
| 2026-05-05 12:04 | 51.01025 | 0.49907 | 13018 ft | 348 kts | 306° |
| 2026-05-05 12:04 | 51.02403 | 0.46813 | 12391 ft | 345 kts | 306° |
| 2026-05-05 12:05 | 51.03789 | 0.43717 | 11769 ft | 342 kts | 306° |
| 2026-05-05 12:05 | 51.05164 | 0.40654 | 11146 ft | 338 kts | 306° |
| 2026-05-05 12:05 | 51.06505 | 0.37672 | 10540 ft | 326 kts | 306° |
| 2026-05-05 12:05 | 51.07807 | 0.34781 | 9932 ft | 316 kts | 305° |
| 2026-05-05 12:06 | 51.08890 | 0.32139 | 9388 ft | 305 kts | 301° |
| 2026-05-05 12:06 | 51.09940 | 0.29314 | 9160 ft | 284 kts | 301° |
| 2026-05-05 12:06 | 51.10940 | 0.26617 | 9111 ft | 285 kts | 301° |
| 2026-05-05 12:06 | 51.11947 | 0.23902 | 9103 ft | 284 kts | 301° |
| 2026-05-05 12:07 | 51.13090 | 0.21359 | 9102 ft | 283 kts | 316° |
| 2026-05-05 12:07 | 51.14708 | 0.19585 | 9093 ft | 284 kts | 331° |
| 2026-05-05 12:07 | 51.16443 | 0.18097 | 9088 ft | 283 kts | 333° |
| 2026-05-05 12:07 | 51.18191 | 0.16638 | 9086 ft | 283 kts | 333° |
| 2026-05-05 12:08 | 51.19927 | 0.15167 | 8953 ft | 283 kts | 332° |
| 2026-05-05 12:08 | 51.21408 | 0.13886 | 8742 ft | 284 kts | 332° |
| 2026-05-05 12:08 | 51.23128 | 0.12371 | 8507 ft | 281 kts | 332° |
| 2026-05-05 12:08 | 51.24829 | 0.10861 | 8242 ft | 279 kts | 332° |
| 2026-05-05 12:09 | 51.26528 | 0.09347 | 8017 ft | 278 kts | 332° |
| 2026-05-05 12:09 | 51.28203 | 0.07850 | 7969 ft | 271 kts | 332° |
| 2026-05-05 12:09 | 51.29833 | 0.06398 | 7967 ft | 268 kts | 332° |
| 2026-05-05 12:09 | 51.31443 | 0.04960 | 7964 ft | 269 kts | 330° |
| 2026-05-05 12:10 | 51.32825 | 0.02972 | 7963 ft | 271 kts | 306° |
| 2026-05-05 12:10 | 51.33558 | 0.00215 | 7968 ft | 272 kts | 280° |
| 2026-05-05 12:10 | 51.33643 | -0.02810 | 7961 ft | 273 kts | 271° |
| 2026-05-05 12:10 | 51.33659 | -0.05852 | 7971 ft | 272 kts | 271° |
| 2026-05-05 12:11 | 51.33675 | -0.08877 | 7967 ft | 272 kts | 271° |
| 2026-05-05 12:11 | 51.33690 | -0.11914 | 7970 ft | 273 kts | 271° |
| 2026-05-05 12:11 | 51.33706 | -0.14942 | 7966 ft | 272 kts | 271° |
| 2026-05-05 12:11 | 51.33721 | -0.17970 | 7966 ft | 272 kts | 271° |
| 2026-05-05 12:12 | 51.33733 | -0.21006 | 7967 ft | 273 kts | 271° |
| 2026-05-05 12:12 | 51.33746 | -0.24040 | 7966 ft | 273 kts | 271° |
| 2026-05-05 12:12 | 51.33758 | -0.27072 | 7967 ft | 273 kts | 271° |
| 2026-05-05 12:12 | 51.33764 | -0.28988 | 7968 ft | 273 kts | 271° |
| 2026-05-05 12:13 | 51.33769 | -0.30350 | 7963 ft | 272 kts | 271° |
| 2026-05-05 12:13 | 51.33777 | -0.33380 | 7967 ft | 273 kts | 271° |
| 2026-05-05 12:13 | 51.33785 | -0.36411 | 7967 ft | 273 kts | 271° |
| 2026-05-05 12:13 | 51.33793 | -0.39408 | 7964 ft | 273 kts | 271° |
| 2026-05-05 12:14 | 51.33802 | -0.42442 | 7969 ft | 273 kts | 271° |
| 2026-05-05 12:14 | 51.33808 | -0.45518 | 7966 ft | 273 kts | 271° |
| 2026-05-05 12:14 | 51.33813 | -0.48505 | 7965 ft | 273 kts | 271° |
| 2026-05-05 12:14 | 51.33818 | -0.51535 | 7963 ft | 273 kts | 271° |
| 2026-05-05 12:15 | 51.33820 | -0.54570 | 7969 ft | 273 kts | 271° |
| 2026-05-05 12:15 | 51.33821 | -0.57612 | 7966 ft | 273 kts | 271° |
| 2026-05-05 12:15 | 51.33822 | -0.60651 | 7876 ft | 274 kts | 271° |
| 2026-05-05 12:15 | 51.33820 | -0.63704 | 7486 ft | 275 kts | 271° |
| 2026-05-05 12:16 | 51.33817 | -0.66797 | 6978 ft | 273 kts | 271° |
| 2026-05-05 12:16 | 51.33809 | -0.69774 | 6498 ft | 270 kts | 271° |
| 2026-05-05 12:16 | 51.33934 | -0.72725 | 5979 ft | 264 kts | 286° |
| 2026-05-05 12:16 | 51.34717 | -0.75256 | 5458 ft | 256 kts | 312° |
| 2026-05-05 12:17 | 51.36099 | -0.76976 | 4980 ft | 250 kts | 336° |
| 2026-05-05 12:17 | 51.37647 | -0.78208 | 4448 ft | 247 kts | 336° |
| 2026-05-05 12:17 | 51.39152 | -0.79419 | 3980 ft | 238 kts | 336° |
| 2026-05-05 12:17 | 51.40707 | -0.80105 | 3479 ft | 230 kts | 359° |
| 2026-05-05 12:18 | 51.42274 | -0.80123 | 3115 ft | 219 kts | 1° |
| 2026-05-05 12:18 | 51.43707 | -0.79872 | 2996 ft | 202 kts | 21° |
| 2026-05-05 12:18 | 51.44885 | -0.78478 | 3005 ft | 220 kts | 51° |
| 2026-05-05 12:18 | 51.45637 | -0.76345 | 3003 ft | 218 kts | 61° |
| 2026-05-05 12:19 | 51.46321 | -0.74229 | 2999 ft | 209 kts | 61° |
| 2026-05-05 12:19 | 51.46967 | -0.72225 | 3000 ft | 195 kts | 61° |
| 2026-05-05 12:19 | 51.47458 | -0.70226 | 2820 ft | 194 kts | 73° |
| 2026-05-05 12:19 | 51.47647 | -0.68067 | 2533 ft | 196 kts | 84° |
| 2026-05-05 12:20 | 51.47679 | -0.65898 | 2283 ft | 190 kts | 87° |
| 2026-05-05 12:20 | 51.47687 | -0.63812 | 2008 ft | 182 kts | 86° |
| 2026-05-05 12:20 | 51.47695 | -0.61864 | 1772 ft | 167 kts | 87° |
| 2026-05-05 12:20 | 51.47701 | -0.60060 | 1548 ft | 155 kts | 86° |
| 2026-05-05 12:21 | 51.47713 | -0.58326 | 1335 ft | 157 kts | 85° |
| 2026-05-05 12:21 | 51.47720 | -0.56572 | 1121 ft | 156 kts | 87° |
| 2026-05-05 12:21 | 51.47724 | -0.54830 | 905 ft | 157 kts | 86° |
| 2026-05-05 12:21 | 51.47733 | -0.53075 | 667 ft | 155 kts | 87° |
| 2026-05-05 12:22 | 51.47736 | -0.51409 | 469 ft | 149 kts | 87° |
| 2026-05-05 12:22 | 51.47745 | -0.49687 | 274 ft | 157 kts | 87° |
| 2026-05-05 12:22 | 51.47749 | -0.48133 | 117 ft | 146 kts | 88° |
| 2026-05-05 12:22 | 51.47756 | -0.46697 | 101 ft | 102 kts | 89° |
| 2026-05-05 12:23 | 51.47760 | -0.45891 | 91 ft | 44 kts | 90° |
| 2026-05-05 12:23 | 51.47757 | -0.45540 | 91 ft | 13 kts | 100° |
| 2026-05-05 12:23 | 51.47692 | -0.45469 | 90 ft | 12 kts | 175° |
| 2026-05-05 12:23 | 51.47630 | -0.45469 | 91 ft | 8 kts | 178° |
| 2026-05-05 12:24 | 51.47599 | -0.45467 | 92 ft | 0 kts | 178° |
| 2026-05-05 12:24 | 51.47598 | -0.45467 | 92 ft | 1 kts | 178° |
| 2026-05-05 12:24 | 51.47553 | -0.45463 | 91 ft | 12 kts | 173° |
| 2026-05-05 12:25 | 51.47509 | -0.45379 | 94 ft | 10 kts | 104° |
| 2026-05-05 12:25 | 51.47506 | -0.45259 | 94 ft | 11 kts | 91° |
| 2026-05-05 12:25 | 51.47505 | -0.45171 | 94 ft | 12 kts | 91° |
| 2026-05-05 12:25 | 51.47507 | -0.45033 | 94 ft | 13 kts | 92° |
| 2026-05-05 12:26 | 51.47508 | -0.44887 | 94 ft | 14 kts | 89° |
| 2026-05-05 12:26 | 51.47512 | -0.44727 | 94 ft | 14 kts | 87° |
| 2026-05-05 12:26 | 51.47488 | -0.44588 | 94 ft | 10 kts | 131° |
| 2026-05-05 12:26 | 51.47419 | -0.44560 | 92 ft | 11 kts | 177° |
| 2026-05-05 12:27 | 51.47336 | -0.44557 | 91 ft | 13 kts | 179° |
| 2026-05-05 12:27 | 51.47245 | -0.44554 | 93 ft | 9 kts | 179° |
| 2026-05-05 12:27 | 51.47226 | -0.44553 | 94 ft | 3 kts | 178° |
| 2026-05-05 12:27 | 51.47198 | -0.44553 | 94 ft | 7 kts | 180° |
| 2026-05-05 12:28 | 51.47147 | -0.44553 | 91 ft | 7 kts | 180° |
| 2026-05-05 12:28 | 51.47102 | -0.44553 | 91 ft | 6 kts | 180° |
| 2026-05-05 12:28 | 51.47060 | -0.44553 | 91 ft | 6 kts | 180° |
| 2026-05-05 12:28 | 51.47039 | -0.44554 | 91 ft | 2 kts | 180° |
| 2026-05-05 12:29 | 51.46988 | -0.44556 | 91 ft | 11 kts | 181° |
| 2026-05-05 12:29 | 51.46906 | -0.44558 | 91 ft | 13 kts | 181° |
| 2026-05-05 12:29 | 51.46834 | -0.44557 | 91 ft | 3 kts | 179° |
| 2026-05-05 12:29 | 51.46822 | -0.44557 | 91 ft | 0 kts | 178° |
| 2026-05-05 12:30 | 51.46821 | -0.44557 | 91 ft | 1 kts | 178° |
| 2026-05-05 12:31 | 51.46787 | -0.44557 | 91 ft | 7 kts | 184° |
| 2026-05-05 12:31 | 51.46755 | -0.44612 | 95 ft | 7 kts | 247° |
| 2026-05-05 12:31 | 51.46754 | -0.44698 | 92 ft | 8 kts | 270° |
| 2026-05-05 12:31 | 51.46754 | -0.44801 | 92 ft | 10 kts | 269° |
| 2026-05-05 12:32 | 51.46754 | -0.44847 | 91 ft | 1 kts | 271° |
| 2026-05-05 12:32 | 51.46767 | -0.44883 | 93 ft | 4 kts | 311° |
| 2026-05-05 12:32 | 51.46815 | -0.44882 | 92 ft | 6 kts | 0° |
| 2026-05-05 12:32 | 51.46837 | -0.44883 | 91 ft | 0 kts | 357° |